createdAt,value
2023-03-29T00:03:45.693Z,70.76
2023-03-29T00:08:54.109Z,70.90
2023-03-29T00:13:57.243Z,71.09
2023-03-29T00:18:59.761Z,71.16
2023-03-29T00:24:02.228Z,71.08
2023-03-29T00:29:04.721Z,71.23
2023-03-29T00:34:07.241Z,71.29
2023-03-29T00:39:10.743Z,71.18
2023-03-29T00:44:49.176Z,71.26
2023-03-29T00:49:53.098Z,71.35
2023-03-29T00:54:59.379Z,71.57
2023-03-29T01:00:05.319Z,71.54
2023-03-29T01:05:20.044Z,71.65
2023-03-29T01:10:29.573Z,71.86
2023-03-29T01:15:33.401Z,71.81
2023-03-29T01:20:51.437Z,71.80
2023-03-29T01:26:04.742Z,71.93
2023-03-29T01:31:20.791Z,72.19
2023-03-29T01:36:31.357Z,72.35
2023-03-29T01:41:37.581Z,72.55
2023-03-29T01:46:46.705Z,72.80
2023-03-29T01:52:02.537Z,72.94
2023-03-29T01:57:10.210Z,73.41
2023-03-29T02:02:15.998Z,73.90
2023-03-29T02:07:24.147Z,74.42
2023-03-29T02:12:26.901Z,74.81
2023-03-29T02:17:30.538Z,75.21
2023-03-29T02:22:49.812Z,75.31
2023-03-29T02:27:52.971Z,75.30
2023-03-29T02:33:06.662Z,75.40
2023-03-29T02:38:14.540Z,75.53
2023-03-29T02:43:17.492Z,75.60
2023-03-29T02:48:23.571Z,76.07
2023-03-29T02:53:32.273Z,76.54
2023-03-29T02:58:36.601Z,77.05
2023-03-29T03:03:39.246Z,76.97
2023-03-29T03:08:42.064Z,77.49
2023-03-29T03:13:44.604Z,78.00
2023-03-29T03:18:49.257Z,78.04
2023-03-29T03:23:51.981Z,78.63
2023-03-29T03:28:54.804Z,78.85
2023-03-29T03:33:57.435Z,78.76
2023-03-29T03:39:01.588Z,78.68
2023-03-29T03:44:04.261Z,78.85
2023-03-29T03:49:06.893Z,79.19
2023-03-29T03:54:09.353Z,79.61
2023-03-29T03:59:11.840Z,79.77
2023-03-29T04:04:14.570Z,80.00
2023-03-29T04:09:18.006Z,80.54
2023-03-29T04:14:21.568Z,80.67
2023-03-29T04:19:24.076Z,80.76
2023-03-29T04:24:26.711Z,81.10
2023-03-29T04:29:29.591Z,81.22
2023-03-29T04:34:32.169Z,81.54
2023-03-29T04:39:34.879Z,81.66
2023-03-29T04:44:37.807Z,81.86
2023-03-29T04:49:41.337Z,82.02
2023-03-29T04:54:43.871Z,82.08
2023-03-29T04:59:46.330Z,81.95
2023-03-29T05:04:49.096Z,82.12
2023-03-29T05:09:51.887Z,82.28
2023-03-29T05:14:54.475Z,82.25
2023-03-29T05:19:57.128Z,82.46
2023-03-29T05:24:59.602Z,82.46
2023-03-29T05:30:02.221Z,82.44
2023-03-29T05:35:06.625Z,82.68
2023-03-29T05:40:09.853Z,82.85
2023-03-29T05:45:12.630Z,82.70
2023-03-29T05:50:15.333Z,82.84
2023-03-29T05:55:18.367Z,82.64
2023-03-29T06:00:25.443Z,82.59
2023-03-29T06:05:28.041Z,82.38
2023-03-29T06:10:30.578Z,82.33
2023-03-29T06:15:34.866Z,82.22
2023-03-29T06:20:37.378Z,79.43
2023-03-29T06:25:40.421Z,75.80
2023-03-29T06:30:43.808Z,71.77
2023-03-29T06:35:48.510Z,66.89
2023-03-29T06:40:52.580Z,63.04
2023-03-29T06:45:55.098Z,59.04
2023-03-29T06:50:57.762Z,52.88
2023-03-29T06:56:05.042Z,48.60
2023-03-29T07:01:07.644Z,47.11
2023-03-29T07:06:10.216Z,44.26
2023-03-29T07:11:15.136Z,42.35
2023-03-29T07:16:19.193Z,40.45
2023-03-29T07:21:22.556Z,38.41
2023-03-29T07:26:28.582Z,37.33
2023-03-29T07:31:35.614Z,36.74
2023-03-29T07:36:38.785Z,36.26
2023-03-29T07:41:41.260Z,34.42
2023-03-29T07:46:44.406Z,34.53
2023-03-29T07:51:47.729Z,35.33
2023-03-29T07:56:50.888Z,34.84
2023-03-29T08:01:55.201Z,35.09
2023-03-29T08:06:58.021Z,36.04
2023-03-29T08:12:00.555Z,36.73
2023-03-29T08:17:03.156Z,37.99
2023-03-29T08:22:05.878Z,38.90
2023-03-29T08:27:08.587Z,39.86
2023-03-29T08:32:11.386Z,41.00
2023-03-29T08:37:13.992Z,42.27
2023-03-29T08:42:49.147Z,42.76
2023-03-29T08:47:59.674Z,42.57
2023-03-29T08:53:15.358Z,42.96
2023-03-29T08:58:26.533Z,40.68
2023-03-29T09:03:34.098Z,39.08
2023-03-29T09:08:47.431Z,38.85
2023-03-29T09:14:21.748Z,38.85
2023-03-29T09:19:48.280Z,38.90
2023-03-29T09:25:06.713Z,38.38
2023-03-29T09:30:15.159Z,38.70
2023-03-29T09:35:30.952Z,38.43
2023-03-29T09:40:50.002Z,39.63
2023-03-29T09:45:57.136Z,38.79
2023-03-29T09:51:01.095Z,39.21
2023-03-29T09:56:06.698Z,39.62
2023-03-29T10:01:15.657Z,40.11
2023-03-29T10:06:21.362Z,40.23
2023-03-29T10:11:34.895Z,40.34
2023-03-29T10:16:41.160Z,39.84
2023-03-29T10:21:43.743Z,39.36
2023-03-29T10:26:46.965Z,37.24
2023-03-29T10:31:50.603Z,35.65
2023-03-29T10:36:58.896Z,37.85
2023-03-29T10:42:04.162Z,38.06
2023-03-29T10:47:13.323Z,38.63
2023-03-29T10:52:17.608Z,37.35
2023-03-29T10:57:49.585Z,37.49
2023-03-29T11:03:12.013Z,36.83
2023-03-29T11:08:34.786Z,36.79
2023-03-29T11:13:53.152Z,36.87
2023-03-29T11:19:25.930Z,38.56
2023-03-29T11:24:46.803Z,37.26
2023-03-29T11:30:00.307Z,36.60
2023-03-29T11:35:03.218Z,36.82
2023-03-29T11:40:27.933Z,36.50
2023-03-29T11:45:37.296Z,36.59
2023-03-29T11:50:46.279Z,35.92
2023-03-29T11:55:51.285Z,35.44
2023-03-29T12:01:01.729Z,35.35
2023-03-29T12:06:14.172Z,35.10
2023-03-29T12:11:28.673Z,35.06
2023-03-29T12:16:37.051Z,35.00
2023-03-29T12:21:42.158Z,35.31
2023-03-29T12:26:47.614Z,35.08
2023-03-29T12:32:08.882Z,34.96
2023-03-29T12:37:31.892Z,35.31
2023-03-29T12:42:42.860Z,35.07
2023-03-29T12:47:47.100Z,34.57
2023-03-29T12:52:49.745Z,35.22
2023-03-29T12:58:21.124Z,35.10
2023-03-29T13:04:05.922Z,34.93
2023-03-29T13:09:29.715Z,34.58
2023-03-29T13:14:36.473Z,34.74
2023-03-29T13:19:51.910Z,34.86
2023-03-29T13:25:26.541Z,34.48
2023-03-29T13:30:56.777Z,35.38
2023-03-29T13:36:02.443Z,36.07
2023-03-29T13:41:23.122Z,36.05
2023-03-29T13:46:43.070Z,35.55
2023-03-29T13:52:19.326Z,36.21
2023-03-29T13:57:40.087Z,36.40
2023-03-29T14:02:49.535Z,36.25
2023-03-29T14:07:54.541Z,36.24
2023-03-29T14:12:57.547Z,36.80
2023-03-29T14:18:01.345Z,37.15
2023-03-29T14:23:14.346Z,37.37
2023-03-29T14:28:23.062Z,38.14
2023-03-29T14:33:27.288Z,38.69
2023-03-29T14:38:31.594Z,38.24
2023-03-29T14:43:34.252Z,38.02
2023-03-29T14:48:37.736Z,38.71
2023-03-29T14:53:42.494Z,38.42
2023-03-29T14:58:48.801Z,38.37
2023-03-29T15:04:08.871Z,38.77
2023-03-29T15:09:19.861Z,39.44
2023-03-29T15:14:24.190Z,39.58
2023-03-29T15:19:28.061Z,39.41
2023-03-29T15:24:33.129Z,39.57
2023-03-29T15:29:41.632Z,39.78
2023-03-29T15:34:44.125Z,40.80
2023-03-29T15:39:46.650Z,41.55
2023-03-29T15:44:49.183Z,42.31
2023-03-29T15:49:51.809Z,42.99
2023-03-29T15:54:54.499Z,43.58
2023-03-29T16:00:00.045Z,43.98
2023-03-29T16:05:02.577Z,44.30
2023-03-29T16:10:06.430Z,44.85
2023-03-29T16:15:18.197Z,45.46
2023-03-29T16:20:58.538Z,46.13
2023-03-29T16:26:22.982Z,46.70
2023-03-29T16:37:06.522Z,47.55
2023-03-29T16:42:11.206Z,47.85
2023-03-29T16:47:14.440Z,48.40
2023-03-29T17:03:10.665Z,49.86
2023-03-29T17:08:13.360Z,50.26
2023-03-29T17:13:16.018Z,50.77
2023-03-29T17:18:24.021Z,51.19
2023-03-29T17:23:26.751Z,51.58
2023-03-29T17:28:29.246Z,51.99
2023-03-29T17:33:31.801Z,52.47
2023-03-29T17:38:34.846Z,52.73
2023-03-29T17:43:37.333Z,53.10
2023-03-29T17:48:40.065Z,53.50
2023-03-29T17:53:43.294Z,53.77
2023-03-29T17:58:46.634Z,54.15
2023-03-29T18:03:49.228Z,54.43
2023-03-29T18:08:53.136Z,54.62
2023-03-29T18:13:59.236Z,54.58
2023-03-29T18:19:01.916Z,54.79
2023-03-29T18:24:04.499Z,54.80
2023-03-29T18:29:09.844Z,54.85
2023-03-29T18:34:12.875Z,54.88
2023-03-29T18:39:15.384Z,54.94
2023-03-29T18:44:18.709Z,55.02
2023-03-29T18:49:21.423Z,55.21
2023-03-29T18:54:25.549Z,55.30
2023-03-29T18:59:31.955Z,55.40
2023-03-29T19:04:34.579Z,55.56
2023-03-29T19:09:39.344Z,55.60
2023-03-29T19:14:42.381Z,55.74
2023-03-29T19:19:45.294Z,55.80
2023-03-29T19:24:48.311Z,55.92
2023-03-29T19:29:51.306Z,55.85
2023-03-29T19:34:53.800Z,55.83
2023-03-29T19:39:57.067Z,55.71
2023-03-29T19:45:00.141Z,55.63
2023-03-29T19:50:04.663Z,55.54
2023-03-29T19:55:08.366Z,55.71
2023-03-29T20:00:11.474Z,55.65
2023-03-29T20:05:15.967Z,55.76
2023-03-29T20:10:19.499Z,55.82
2023-03-29T20:15:25.520Z,55.92
2023-03-29T20:20:31.805Z,56.09
2023-03-29T20:25:37.316Z,56.25
2023-03-29T20:31:06.913Z,56.43
2023-03-29T20:36:24.026Z,56.72
2023-03-29T20:41:38.239Z,56.93
2023-03-29T20:46:54.272Z,56.96
2023-03-29T20:52:04.576Z,57.07
2023-03-29T20:57:07.940Z,57.00
2023-03-29T21:02:17.113Z,56.95
2023-03-29T21:07:22.914Z,56.93
2023-03-29T21:12:25.849Z,56.92
2023-03-29T21:17:28.370Z,56.99
2023-03-29T21:22:31.603Z,56.94
2023-03-29T21:27:35.481Z,56.92
2023-03-29T21:32:38.331Z,57.08
2023-03-29T21:37:41.211Z,57.23
2023-03-29T21:42:43.746Z,57.19
2023-03-29T21:47:46.312Z,57.27
2023-03-29T21:52:48.922Z,57.51
2023-03-29T21:57:51.395Z,57.45
2023-03-29T22:02:54.038Z,57.51
2023-03-29T22:07:58.576Z,57.52
2023-03-29T22:13:01.099Z,57.66
2023-03-29T22:18:03.893Z,57.79
2023-03-29T22:23:06.482Z,57.84
2023-03-29T22:28:08.964Z,57.94
2023-03-29T22:33:11.542Z,58.09
2023-03-29T22:38:14.030Z,58.28
2023-03-29T22:43:16.542Z,58.36
2023-03-29T22:48:19.016Z,58.41
2023-03-29T22:53:21.505Z,58.74
2023-03-29T22:58:24.520Z,59.03
2023-03-29T23:03:27.679Z,59.29
2023-03-29T23:08:34.641Z,59.59
2023-03-29T23:13:37.238Z,59.77
2023-03-29T23:18:39.855Z,59.94
2023-03-29T23:23:43.381Z,60.09
2023-03-29T23:28:45.901Z,60.29
2023-03-29T23:33:49.417Z,60.63
2023-03-29T23:38:52.531Z,60.75
2023-03-29T23:43:57.447Z,61.07
2023-03-29T23:49:00.024Z,61.37
2023-03-29T23:54:02.680Z,61.52
2023-03-29T23:59:05.205Z,61.71
